»·PEaware :: DCM424 49X-L52

DCM424 :: 49X-L52

FLIGHT INFORMATION

Flight Status: Arrived
Operator: DotCom
More flights by this operator :: More flights under this callsign
Pilot: Ben H. (9170)
Aircraft: CESSNA 550 CITATION 2/S2/BRAVO
(C550)
More flights by this aircraft type
Origin: 49X Chemehuevi Valley
United States
Destination: L52 Oceano Co
United States
More flights between these airports :: More routes between these airports
Route: +EED J6 PMD V137 GMN FLW
File this flight plan on PilotEdge
Remarks:
Altitude:
(Current/Filed)
28,000ft
Speed:
(Current/Filed)
280kts
Departed: 31-Aug-19 08:54 AM
Arrived: 31-Aug-19 10:07 AM
Distance/Time
Traveled:
307nm/1:13
Distance/Time
To Go:
Arrived

Flight Plot

Page will automatically refresh every two minutes.

Flight plan parsing failed; only flown route is shown


Map Options




Map Legend


Flown Route
Filed Route
Departure Airport
Arrival Airport
Navaid (VOR, NDB)
Fix

Horizontal Profiles

Position Reports

Time Latitude Longitude Heading Altitude Ground
Speed
31-Aug-19 08:45 34.529457 -114.430281 179 634ft 0kts
31-Aug-19 08:46 34.529457 -114.430281 179 634ft 0kts
31-Aug-19 08:48 34.529457 -114.430281 179 634ft 0kts
31-Aug-19 08:49 34.529457 -114.430281 179 634ft 0kts
31-Aug-19 08:50 34.529806 -114.430971 1 634ft 9kts
31-Aug-19 08:51 34.534252 -114.430960 1 634ft 20kts
31-Aug-19 08:52 34.535667 -114.431188 274 634ft 0kts
31-Aug-19 08:53 34.535605 -114.431885 230 634ft 9kts
31-Aug-19 08:54 34.520603 -114.432384 179 875ft 122kts
31-Aug-19 08:55 34.511559 -114.465741 329 2277ft 214kts
31-Aug-19 08:56 34.563430 -114.446476 11 4948ft 199kts
31-Aug-19 08:57 34.619127 -114.448075 353 6902ft 214kts
31-Aug-19 08:58 34.676965 -114.458210 352 9153ft 202kts
31-Aug-19 08:59 34.733983 -114.468515 346 10839ft 212kts
31-Aug-19 09:00 34.767253 -114.522390 270 12221ft 220kts
31-Aug-19 09:01 34.768954 -114.597151 269 13996ft 224kts
31-Aug-19 09:02 34.770587 -114.674451 270 15631ft 230kts
31-Aug-19 09:03 34.772295 -114.752925 270 17134ft 235kts
31-Aug-19 09:04 34.773999 -114.833335 271 18515ft 241kts
31-Aug-19 09:05 34.775717 -114.916091 271 19907ft 247kts
31-Aug-19 09:06 34.777394 -115.000621 271 21248ft 252kts
31-Aug-19 09:07 34.779050 -115.087045 271 22479ft 258kts
31-Aug-19 09:08 34.780661 -115.174753 271 23628ft 263kts
31-Aug-19 09:09 34.782237 -115.264218 270 24717ft 267kts
31-Aug-19 09:09 34.783520 -115.339960 270 25564ft 269kts
31-Aug-19 09:10 34.785007 -115.431457 270 26496ft 273kts
31-Aug-19 09:12 34.786677 -115.540165 269 27541ft 278kts
31-Aug-19 09:12 34.787811 -115.619550 269 28023ft 295kts
31-Aug-19 09:13 34.789199 -115.718919 269 28022ft 308kts
31-Aug-19 09:14 34.790590 -115.824306 269 28021ft 316kts
31-Aug-19 09:15 34.791914 -115.931943 269 28021ft 321kts
31-Aug-19 09:16 34.793154 -116.042166 269 28065ft 332kts
31-Aug-19 09:17 34.794337 -116.156544 269 28112ft 345kts
31-Aug-19 09:18 34.795463 -116.275233 269 28119ft 355kts
31-Aug-19 09:19 34.796494 -116.396366 269 28118ft 360kts
31-Aug-19 09:20 34.791652 -116.518134 261 28120ft 361kts
31-Aug-19 09:21 34.779867 -116.639617 261 28129ft 362kts
31-Aug-19 09:22 34.767888 -116.760810 261 28137ft 362kts
31-Aug-19 09:23 34.755926 -116.880730 261 28146ft 362kts
31-Aug-19 09:24 34.743628 -117.002782 261 28140ft 362kts
31-Aug-19 09:25 34.731258 -117.124360 261 28126ft 363kts
31-Aug-19 09:26 34.718714 -117.246365 261 28128ft 362kts
31-Aug-19 09:27 34.706095 -117.367913 261 28128ft 362kts
31-Aug-19 09:28 34.693353 -117.489437 261 28128ft 362kts
31-Aug-19 09:29 34.680514 -117.610717 261 28128ft 362kts
31-Aug-19 09:30 34.667541 -117.732079 260 28128ft 362kts
31-Aug-19 09:31 34.654430 -117.853575 260 28128ft 362kts
31-Aug-19 09:32 34.641205 -117.974928 260 28115ft 362kts
31-Aug-19 09:33 34.638640 -118.096378 281 28101ft 365kts
31-Aug-19 09:34 34.664421 -118.215885 283 28100ft 365kts
31-Aug-19 09:35 34.690656 -118.335072 283 28100ft 365kts
31-Aug-19 09:36 34.716468 -118.453796 283 28100ft 364kts
31-Aug-19 09:37 34.742322 -118.573479 283 28097ft 364kts
31-Aug-19 09:38 34.767768 -118.691907 282 28157ft 362kts
31-Aug-19 09:39 34.793077 -118.810321 282 28198ft 361kts
31-Aug-19 09:40 34.820792 -118.918838 287 27077ft 351kts
31-Aug-19 09:41 34.853292 -119.030396 288 25840ft 348kts
31-Aug-19 09:42 34.885119 -119.139823 288 24442ft 338kts
31-Aug-19 09:43 34.915061 -119.243116 288 24035ft 304kts
31-Aug-19 09:44 34.942397 -119.337878 288 23331ft 298kts
31-Aug-19 09:45 34.968508 -119.428438 287 21632ft 268kts
31-Aug-19 09:46 34.993310 -119.515079 287 19835ft 273kts
31-Aug-19 09:47 35.018195 -119.602128 287 18038ft 272kts
31-Aug-19 09:48 35.042606 -119.687722 286 16232ft 256kts
31-Aug-19 09:49 35.065168 -119.767114 287 14433ft 241kts
31-Aug-19 09:50 35.086541 -119.842553 287 12633ft 230kts
31-Aug-19 09:51 35.094052 -119.917682 270 10833ft 221kts
31-Aug-19 09:52 35.094882 -119.991745 270 9091ft 214kts
31-Aug-19 09:53 35.095643 -120.057223 270 9006ft 175kts
31-Aug-19 09:54 35.096395 -120.121098 270 8923ft 216kts
31-Aug-19 09:55 35.097277 -120.195271 271 7415ft 214kts
31-Aug-19 09:56 35.098066 -120.266714 271 5939ft 202kts
31-Aug-19 09:57 35.098728 -120.330131 272 4427ft 178kts
31-Aug-19 09:58 35.099234 -120.383504 273 3999ft 130kts
31-Aug-19 09:59 35.099785 -120.435059 273 3108ft 158kts
31-Aug-19 10:00 35.100097 -120.479983 274 3090ft 98kts
31-Aug-19 10:01 35.104185 -120.518433 302 3111ft 136kts
31-Aug-19 10:02 35.124726 -120.559025 304 3104ft 143kts
31-Aug-19 10:03 35.145759 -120.600729 297 3101ft 143kts
31-Aug-19 10:04 35.136006 -120.647654 212 2732ft 161kts
31-Aug-19 10:05 35.106935 -120.632742 120 291ft 116kts
31-Aug-19 10:06 35.099636 -120.619738 303 19ft 3kts
31-Aug-19 10:07 35.101245 -120.622652 350 19ft 5kts
31-Aug-19 10:08 35.102407 -120.623010 302 19ft 2kts
31-Aug-19 10:09 35.103292 -120.624141 288 19ft 4kts
31-Aug-19 10:10 35.103220 -120.624273 213 19ft 0kts
31-Aug-19 10:11 35.103220 -120.624273 213 19ft 0kts
31-Aug-19 10:12 35.103220 -120.624273 213 19ft 0kts
31-Aug-19 10:13 35.103220 -120.624273 213 19ft 0kts
31-Aug-19 10:14 35.103220 -120.624273 213 19ft 0kts
31-Aug-19 10:15 35.103220 -120.624273 213 19ft 0kts
31-Aug-19 10:16 35.103220 -120.624273 213 19ft 0kts
31-Aug-19 10:17 35.103220 -120.624273 213 19ft 0kts
31-Aug-19 10:18 35.103220 -120.624273 213 19ft 0kts

Navigation Log

Ident Type
Flight plan parsing failed, navigation log unavailable